sensor_id;sensor_type;location;lat;lon;timestamp;P1;durP1;ratioP1;P2;durP2;ratioP2
34317;SDS011;20582;52.196;20.952;2023-05-09T00:00:07;17.45;;;8.82;;
34317;SDS011;20582;52.196;20.952;2023-05-09T00:02:35;19.38;;;9.23;;
34317;SDS011;20582;52.196;20.952;2023-05-09T00:05:02;16.65;;;8.98;;
34317;SDS011;20582;52.196;20.952;2023-05-09T00:07:28;18.17;;;9.20;;
34317;SDS011;20582;52.196;20.952;2023-05-09T00:09:55;19.17;;;10.02;;
34317;SDS011;20582;52.196;20.952;2023-05-09T00:12:21;18.85;;;9.02;;
34317;SDS011;20582;52.196;20.952;2023-05-09T00:14:48;19.08;;;9.05;;
34317;SDS011;20582;52.196;20.952;2023-05-09T00:17:15;16.70;;;9.20;;
34317;SDS011;20582;52.196;20.952;2023-05-09T00:19:42;20.00;;;9.40;;
34317;SDS011;20582;52.196;20.952;2023-05-09T00:22:08;22.95;;;9.57;;
34317;SDS011;20582;52.196;20.952;2023-05-09T00:24:36;18.00;;;8.88;;
34317;SDS011;20582;52.196;20.952;2023-05-09T00:27:03;17.20;;;9.63;;
34317;SDS011;20582;52.196;20.952;2023-05-09T00:29:29;16.05;;;9.20;;
34317;SDS011;20582;52.196;20.952;2023-05-09T00:31:55;17.95;;;9.23;;
34317;SDS011;20582;52.196;20.952;2023-05-09T00:34:21;19.40;;;10.05;;
34317;SDS011;20582;52.196;20.952;2023-05-09T00:36:47;18.50;;;9.70;;
34317;SDS011;20582;52.196;20.952;2023-05-09T00:39:13;20.05;;;10.52;;
34317;SDS011;20582;52.196;20.952;2023-05-09T00:41:39;19.30;;;10.77;;
34317;SDS011;20582;52.196;20.952;2023-05-09T00:44:05;19.00;;;9.70;;
34317;SDS011;20582;52.196;20.952;2023-05-09T00:46:31;16.60;;;9.95;;
34317;SDS011;20582;52.196;20.952;2023-05-09T00:48:57;20.30;;;10.93;;
34317;SDS011;20582;52.196;20.952;2023-05-09T00:51:23;19.88;;;10.73;;
34317;SDS011;20582;52.196;20.952;2023-05-09T00:53:50;21.08;;;10.68;;
34317;SDS011;20582;52.196;20.952;2023-05-09T00:56:16;18.98;;;9.77;;
34317;SDS011;20582;52.196;20.952;2023-05-09T00:58:42;19.77;;;11.65;;
34317;SDS011;20582;52.196;20.952;2023-05-09T01:01:08;19.80;;;10.85;;
34317;SDS011;20582;52.196;20.952;2023-05-09T01:03:34;19.50;;;11.50;;
34317;SDS011;20582;52.196;20.952;2023-05-09T01:11:20;24.25;;;11.98;;
34317;SDS011;20582;52.196;20.952;2023-05-09T01:16:59;22.00;;;10.75;;
34317;SDS011;20582;52.196;20.952;2023-05-09T01:19:16;23.77;;;12.20;;
34317;SDS011;20582;52.196;20.952;2023-05-09T01:21:45;23.05;;;11.93;;
34317;SDS011;20582;52.196;20.952;2023-05-09T01:24:23;22.05;;;12.10;;
34317;SDS011;20582;52.196;20.952;2023-05-09T01:29:47;24.27;;;12.63;;
34317;SDS011;20582;52.196;20.952;2023-05-09T01:32:15;24.50;;;12.52;;
34317;SDS011;20582;52.196;20.952;2023-05-09T01:34:43;22.80;;;12.38;;
34317;SDS011;20582;52.196;20.952;2023-05-09T01:37:10;24.48;;;12.98;;
34317;SDS011;20582;52.196;20.952;2023-05-09T01:39:39;23.45;;;13.30;;
34317;SDS011;20582;52.196;20.952;2023-05-09T01:42:06;25.48;;;13.07;;
34317;SDS011;20582;52.196;20.952;2023-05-09T01:44:34;23.27;;;13.02;;
34317;SDS011;20582;52.196;20.952;2023-05-09T01:47:01;23.42;;;11.70;;
34317;SDS011;20582;52.196;20.952;2023-05-09T01:49:29;22.45;;;12.30;;
34317;SDS011;20582;52.196;20.952;2023-05-09T01:51:57;19.50;;;12.05;;
34317;SDS011;20582;52.196;20.952;2023-05-09T01:54:23;23.23;;;12.00;;
34317;SDS011;20582;52.196;20.952;2023-05-09T01:56:50;24.75;;;13.35;;
34317;SDS011;20582;52.196;20.952;2023-05-09T01:59:17;20.98;;;12.52;;
34317;SDS011;20582;52.196;20.952;2023-05-09T02:01:44;26.73;;;12.38;;
34317;SDS011;20582;52.196;20.952;2023-05-09T02:04:11;22.05;;;12.18;;
34317;SDS011;20582;52.196;20.952;2023-05-09T02:06:38;20.63;;;12.23;;
34317;SDS011;20582;52.196;20.952;2023-05-09T02:09:05;21.92;;;13.25;;
34317;SDS011;20582;52.196;20.952;2023-05-09T02:11:32;27.13;;;12.73;;
34317;SDS011;20582;52.196;20.952;2023-05-09T02:13:58;26.98;;;14.00;;
34317;SDS011;20582;52.196;20.952;2023-05-09T02:16:24;24.67;;;13.50;;
34317;SDS011;20582;52.196;20.952;2023-05-09T02:18:50;23.17;;;12.35;;
34317;SDS011;20582;52.196;20.952;2023-05-09T02:21:16;23.63;;;13.38;;
34317;SDS011;20582;52.196;20.952;2023-05-09T02:23:42;23.85;;;12.43;;
34317;SDS011;20582;52.196;20.952;2023-05-09T02:26:08;23.58;;;13.43;;
34317;SDS011;20582;52.196;20.952;2023-05-09T02:28:34;27.55;;;14.05;;
34317;SDS011;20582;52.196;20.952;2023-05-09T02:31:01;27.27;;;15.02;;
34317;SDS011;20582;52.196;20.952;2023-05-09T02:33:30;24.58;;;13.35;;
34317;SDS011;20582;52.196;20.952;2023-05-09T02:35:57;24.88;;;13.77;;
34317;SDS011;20582;52.196;20.952;2023-05-09T02:38:23;26.33;;;13.07;;
34317;SDS011;20582;52.196;20.952;2023-05-09T02:40:51;25.67;;;13.35;;
34317;SDS011;20582;52.196;20.952;2023-05-09T02:43:17;25.13;;;13.45;;
34317;SDS011;20582;52.196;20.952;2023-05-09T02:45:43;26.23;;;13.63;;
34317;SDS011;20582;52.196;20.952;2023-05-09T02:48:09;23.10;;;12.48;;
34317;SDS011;20582;52.196;20.952;2023-05-09T02:50:35;22.92;;;12.90;;
34317;SDS011;20582;52.196;20.952;2023-05-09T02:53:06;22.45;;;12.48;;
34317;SDS011;20582;52.196;20.952;2023-05-09T02:55:32;23.35;;;12.93;;
34317;SDS011;20582;52.196;20.952;2023-05-09T02:57:58;24.90;;;12.93;;
34317;SDS011;20582;52.196;20.952;2023-05-09T03:00:25;21.88;;;13.00;;
34317;SDS011;20582;52.196;20.952;2023-05-09T03:02:51;25.70;;;13.05;;
34317;SDS011;20582;52.196;20.952;2023-05-09T03:05:17;32.65;;;16.13;;
34317;SDS011;20582;52.196;20.952;2023-05-09T03:07:43;30.52;;;17.27;;
34317;SDS011;20582;52.196;20.952;2023-05-09T03:10:09;31.63;;;19.00;;
34317;SDS011;20582;52.196;20.952;2023-05-09T03:12:36;29.90;;;17.75;;
34317;SDS011;20582;52.196;20.952;2023-05-09T03:15:03;24.50;;;15.10;;
34317;SDS011;20582;52.196;20.952;2023-05-09T03:17:29;28.63;;;16.02;;
34317;SDS011;20582;52.196;20.952;2023-05-09T03:19:55;27.77;;;15.52;;
34317;SDS011;20582;52.196;20.952;2023-05-09T03:22:21;25.88;;;14.57;;
34317;SDS011;20582;52.196;20.952;2023-05-09T03:24:47;29.40;;;15.45;;
34317;SDS011;20582;52.196;20.952;2023-05-09T03:27:13;29.95;;;15.60;;
34317;SDS011;20582;52.196;20.952;2023-05-09T03:29:38;27.98;;;14.82;;
34317;SDS011;20582;52.196;20.952;2023-05-09T03:32:04;28.90;;;15.05;;
34317;SDS011;20582;52.196;20.952;2023-05-09T03:34:30;24.85;;;14.00;;
34317;SDS011;20582;52.196;20.952;2023-05-09T03:36:57;28.95;;;14.40;;
34317;SDS011;20582;52.196;20.952;2023-05-09T03:39:23;23.08;;;14.45;;
34317;SDS011;20582;52.196;20.952;2023-05-09T03:41:49;25.23;;;13.55;;
34317;SDS011;20582;52.196;20.952;2023-05-09T03:44:15;25.75;;;14.23;;
34317;SDS011;20582;52.196;20.952;2023-05-09T03:46:41;26.67;;;14.25;;
34317;SDS011;20582;52.196;20.952;2023-05-09T03:49:07;23.80;;;12.90;;
34317;SDS011;20582;52.196;20.952;2023-05-09T03:51:33;22.40;;;12.88;;
34317;SDS011;20582;52.196;20.952;2023-05-09T03:54:00;21.33;;;12.48;;
34317;SDS011;20582;52.196;20.952;2023-05-09T03:56:26;22.35;;;12.07;;
34317;SDS011;20582;52.196;20.952;2023-05-09T03:58:52;23.38;;;11.52;;
34317;SDS011;20582;52.196;20.952;2023-05-09T04:01:18;21.05;;;11.75;;
34317;SDS011;20582;52.196;20.952;2023-05-09T04:03:44;21.58;;;11.52;;
34317;SDS011;20582;52.196;20.952;2023-05-09T04:06:11;18.88;;;10.77;;
34317;SDS011;20582;52.196;20.952;2023-05-09T04:08:37;20.35;;;12.23;;
34317;SDS011;20582;52.196;20.952;2023-05-09T04:11:03;24.70;;;12.02;;
34317;SDS011;20582;52.196;20.952;2023-05-09T04:13:30;26.10;;;12.52;;
34317;SDS011;20582;52.196;20.952;2023-05-09T04:15:56;24.33;;;13.15;;
34317;SDS011;20582;52.196;20.952;2023-05-09T04:18:22;23.77;;;14.00;;
34317;SDS011;20582;52.196;20.952;2023-05-09T04:20:48;29.25;;;16.50;;
34317;SDS011;20582;52.196;20.952;2023-05-09T04:23:14;28.45;;;15.75;;
34317;SDS011;20582;52.196;20.952;2023-05-09T04:25:40;28.00;;;15.85;;
34317;SDS011;20582;52.196;20.952;2023-05-09T04:28:06;30.65;;;18.90;;
34317;SDS011;20582;52.196;20.952;2023-05-09T04:30:32;29.33;;;18.42;;
34317;SDS011;20582;52.196;20.952;2023-05-09T04:32:58;29.20;;;18.25;;
34317;SDS011;20582;52.196;20.952;2023-05-09T04:35:24;26.05;;;16.15;;
34317;SDS011;20582;52.196;20.952;2023-05-09T04:37:51;26.13;;;15.63;;
34317;SDS011;20582;52.196;20.952;2023-05-09T04:40:17;28.75;;;16.10;;
34317;SDS011;20582;52.196;20.952;2023-05-09T04:42:43;28.20;;;15.63;;
34317;SDS011;20582;52.196;20.952;2023-05-09T04:45:09;26.50;;;16.02;;
34317;SDS011;20582;52.196;20.952;2023-05-09T04:47:35;27.90;;;15.18;;
34317;SDS011;20582;52.196;20.952;2023-05-09T04:50:01;25.25;;;14.52;;
34317;SDS011;20582;52.196;20.952;2023-05-09T04:52:28;26.42;;;14.23;;
34317;SDS011;20582;52.196;20.952;2023-05-09T04:54:53;28.95;;;14.32;;
34317;SDS011;20582;52.196;20.952;2023-05-09T04:57:20;29.45;;;14.68;;
34317;SDS011;20582;52.196;20.952;2023-05-09T04:59:46;26.65;;;15.25;;
34317;SDS011;20582;52.196;20.952;2023-05-09T05:02:12;26.02;;;14.52;;
34317;SDS011;20582;52.196;20.952;2023-05-09T05:04:38;24.80;;;13.25;;
34317;SDS011;20582;52.196;20.952;2023-05-09T05:07:04;29.65;;;13.70;;
34317;SDS011;20582;52.196;20.952;2023-05-09T05:09:30;22.70;;;12.45;;
34317;SDS011;20582;52.196;20.952;2023-05-09T05:11:56;21.85;;;12.18;;
34317;SDS011;20582;52.196;20.952;2023-05-09T05:14:22;20.98;;;11.45;;
34317;SDS011;20582;52.196;20.952;2023-05-09T05:16:48;25.05;;;12.45;;
34317;SDS011;20582;52.196;20.952;2023-05-09T05:19:14;21.65;;;11.38;;
34317;SDS011;20582;52.196;20.952;2023-05-09T05:21:39;23.10;;;12.93;;
34317;SDS011;20582;52.196;20.952;2023-05-09T05:24:05;22.10;;;11.57;;
34317;SDS011;20582;52.196;20.952;2023-05-09T05:26:31;22.15;;;10.80;;
34317;SDS011;20582;52.196;20.952;2023-05-09T05:28:57;19.80;;;9.70;;
34317;SDS011;20582;52.196;20.952;2023-05-09T05:31:24;22.55;;;10.40;;
34317;SDS011;20582;52.196;20.952;2023-05-09T05:33:50;22.02;;;11.70;;
34317;SDS011;20582;52.196;20.952;2023-05-09T05:36:16;19.50;;;8.85;;
34317;SDS011;20582;52.196;20.952;2023-05-09T05:38:42;14.80;;;7.05;;
34317;SDS011;20582;52.196;20.952;2023-05-09T05:41:08;19.33;;;8.50;;
34317;SDS011;20582;52.196;20.952;2023-05-09T05:43:35;14.15;;;7.75;;
34317;SDS011;20582;52.196;20.952;2023-05-09T05:46:01;14.93;;;8.02;;
34317;SDS011;20582;52.196;20.952;2023-05-09T05:48:27;15.70;;;7.85;;
34317;SDS011;20582;52.196;20.952;2023-05-09T05:50:53;13.23;;;6.85;;
34317;SDS011;20582;52.196;20.952;2023-05-09T05:53:19;16.08;;;6.85;;
34317;SDS011;20582;52.196;20.952;2023-05-09T05:55:45;10.43;;;5.95;;
34317;SDS011;20582;52.196;20.952;2023-05-09T05:58:11;12.68;;;6.00;;
34317;SDS011;20582;52.196;20.952;2023-05-09T06:00:37;12.80;;;5.85;;
34317;SDS011;20582;52.196;20.952;2023-05-09T06:03:03;13.85;;;5.45;;
34317;SDS011;20582;52.196;20.952;2023-05-09T06:05:29;14.70;;;5.82;;
34317;SDS011;20582;52.196;20.952;2023-05-09T06:07:55;12.60;;;6.10;;
34317;SDS011;20582;52.196;20.952;2023-05-09T06:10:21;13.52;;;5.90;;
34317;SDS011;20582;52.196;20.952;2023-05-09T06:12:47;14.38;;;5.75;;
34317;SDS011;20582;52.196;20.952;2023-05-09T06:15:13;12.20;;;5.28;;
34317;SDS011;20582;52.196;20.952;2023-05-09T06:17:39;11.05;;;4.60;;
34317;SDS011;20582;52.196;20.952;2023-05-09T06:20:05;11.68;;;4.35;;
34317;SDS011;20582;52.196;20.952;2023-05-09T06:22:31;13.63;;;5.10;;
34317;SDS011;20582;52.196;20.952;2023-05-09T06:24:57;11.38;;;5.47;;
34317;SDS011;20582;52.196;20.952;2023-05-09T06:27:23;12.70;;;5.03;;
34317;SDS011;20582;52.196;20.952;2023-05-09T06:29:49;15.25;;;6.00;;
34317;SDS011;20582;52.196;20.952;2023-05-09T06:32:16;10.10;;;5.13;;
34317;SDS011;20582;52.196;20.952;2023-05-09T06:34:43;10.80;;;5.28;;
34317;SDS011;20582;52.196;20.952;2023-05-09T06:37:09;11.35;;;5.85;;
34317;SDS011;20582;52.196;20.952;2023-05-09T06:39:35;10.32;;;5.13;;
34317;SDS011;20582;52.196;20.952;2023-05-09T06:42:01;11.63;;;5.35;;
34317;SDS011;20582;52.196;20.952;2023-05-09T06:44:27;13.02;;;6.03;;
34317;SDS011;20582;52.196;20.952;2023-05-09T06:46:53;13.10;;;5.45;;
34317;SDS011;20582;52.196;20.952;2023-05-09T06:49:19;15.10;;;5.20;;
34317;SDS011;20582;52.196;20.952;2023-05-09T06:51:45;12.95;;;5.43;;
34317;SDS011;20582;52.196;20.952;2023-05-09T06:54:11;14.50;;;6.28;;
34317;SDS011;20582;52.196;20.952;2023-05-09T06:56:37;13.18;;;5.38;;
34317;SDS011;20582;52.196;20.952;2023-05-09T06:59:03;16.42;;;5.75;;
34317;SDS011;20582;52.196;20.952;2023-05-09T07:01:29;11.45;;;5.65;;
34317;SDS011;20582;52.196;20.952;2023-05-09T07:03:55;12.23;;;5.18;;
34317;SDS011;20582;52.196;20.952;2023-05-09T07:06:23;9.65;;;4.78;;
34317;SDS011;20582;52.196;20.952;2023-05-09T07:08:49;12.55;;;5.10;;
34317;SDS011;20582;52.196;20.952;2023-05-09T07:11:15;10.70;;;4.57;;
34317;SDS011;20582;52.196;20.952;2023-05-09T07:13:41;10.35;;;4.32;;
34317;SDS011;20582;52.196;20.952;2023-05-09T07:16:07;10.68;;;4.47;;
34317;SDS011;20582;52.196;20.952;2023-05-09T07:18:33;9.90;;;4.20;;
34317;SDS011;20582;52.196;20.952;2023-05-09T07:20:59;7.03;;;3.47;;
34317;SDS011;20582;52.196;20.952;2023-05-09T07:23:25;9.35;;;3.88;;
34317;SDS011;20582;52.196;20.952;2023-05-09T07:25:57;8.70;;;4.40;;
34317;SDS011;20582;52.196;20.952;2023-05-09T07:28:23;6.88;;;3.30;;
34317;SDS011;20582;52.196;20.952;2023-05-09T07:30:50;11.48;;;4.00;;
34317;SDS011;20582;52.196;20.952;2023-05-09T07:33:16;8.05;;;3.10;;
34317;SDS011;20582;52.196;20.952;2023-05-09T07:35:41;6.82;;;3.40;;
34317;SDS011;20582;52.196;20.952;2023-05-09T07:38:07;6.88;;;3.60;;
34317;SDS011;20582;52.196;20.952;2023-05-09T07:40:34;7.63;;;2.80;;
34317;SDS011;20582;52.196;20.952;2023-05-09T07:43:02;7.50;;;2.92;;
34317;SDS011;20582;52.196;20.952;2023-05-09T07:45:28;6.18;;;2.95;;
34317;SDS011;20582;52.196;20.952;2023-05-09T07:47:54;6.13;;;3.05;;
34317;SDS011;20582;52.196;20.952;2023-05-09T07:50:20;8.93;;;3.03;;
34317;SDS011;20582;52.196;20.952;2023-05-09T07:52:47;6.32;;;2.65;;
34317;SDS011;20582;52.196;20.952;2023-05-09T07:55:13;6.65;;;2.70;;
34317;SDS011;20582;52.196;20.952;2023-05-09T07:57:39;5.97;;;2.60;;
34317;SDS011;20582;52.196;20.952;2023-05-09T08:00:06;9.05;;;2.63;;
34317;SDS011;20582;52.196;20.952;2023-05-09T08:02:32;3.40;;;2.25;;
34317;SDS011;20582;52.196;20.952;2023-05-09T08:04:58;6.32;;;2.75;;
34317;SDS011;20582;52.196;20.952;2023-05-09T08:07:24;6.90;;;2.80;;
34317;SDS011;20582;52.196;20.952;2023-05-09T08:09:50;7.88;;;2.72;;
34317;SDS011;20582;52.196;20.952;2023-05-09T08:12:16;5.03;;;2.67;;
34317;SDS011;20582;52.196;20.952;2023-05-09T08:14:42;5.43;;;2.75;;
34317;SDS011;20582;52.196;20.952;2023-05-09T08:17:08;6.22;;;2.58;;
34317;SDS011;20582;52.196;20.952;2023-05-09T08:19:34;4.10;;;2.22;;
34317;SDS011;20582;52.196;20.952;2023-05-09T08:22:00;6.65;;;2.72;;
34317;SDS011;20582;52.196;20.952;2023-05-09T08:24:26;7.93;;;2.90;;
34317;SDS011;20582;52.196;20.952;2023-05-09T08:26:52;6.57;;;2.50;;
34317;SDS011;20582;52.196;20.952;2023-05-09T08:29:18;5.80;;;2.70;;
34317;SDS011;20582;52.196;20.952;2023-05-09T08:31:44;6.70;;;2.88;;
34317;SDS011;20582;52.196;20.952;2023-05-09T08:34:10;6.43;;;2.90;;
34317;SDS011;20582;52.196;20.952;2023-05-09T08:36:36;6.25;;;2.60;;
34317;SDS011;20582;52.196;20.952;2023-05-09T08:39:03;4.30;;;2.50;;
34317;SDS011;20582;52.196;20.952;2023-05-09T08:41:29;6.30;;;2.42;;
34317;SDS011;20582;52.196;20.952;2023-05-09T08:43:59;4.55;;;2.60;;
34317;SDS011;20582;52.196;20.952;2023-05-09T08:46:35;6.10;;;2.55;;
34317;SDS011;20582;52.196;20.952;2023-05-09T08:49:03;3.88;;;2.40;;
34317;SDS011;20582;52.196;20.952;2023-05-09T08:51:30;7.95;;;2.72;;
34317;SDS011;20582;52.196;20.952;2023-05-09T08:53:57;8.98;;;2.75;;
34317;SDS011;20582;52.196;20.952;2023-05-09T08:56:23;7.22;;;2.85;;
34317;SDS011;20582;52.196;20.952;2023-05-09T08:58:50;5.57;;;2.65;;
34317;SDS011;20582;52.196;20.952;2023-05-09T09:01:16;4.25;;;2.45;;
34317;SDS011;20582;52.196;20.952;2023-05-09T09:03:42;6.35;;;2.67;;
34317;SDS011;20582;52.196;20.952;2023-05-09T09:06:11;7.10;;;2.85;;
34317;SDS011;20582;52.196;20.952;2023-05-09T09:08:38;7.68;;;2.78;;
34317;SDS011;20582;52.196;20.952;2023-05-09T09:11:05;3.92;;;2.42;;
34317;SDS011;20582;52.196;20.952;2023-05-09T09:13:31;3.88;;;2.53;;
34317;SDS011;20582;52.196;20.952;2023-05-09T09:16:03;5.80;;;2.65;;
34317;SDS011;20582;52.196;20.952;2023-05-09T09:18:29;4.93;;;2.65;;
34317;SDS011;20582;52.196;20.952;2023-05-09T09:20:58;5.22;;;2.70;;
34317;SDS011;20582;52.196;20.952;2023-05-09T09:23:26;5.83;;;2.70;;
34317;SDS011;20582;52.196;20.952;2023-05-09T09:26:11;6.85;;;3.05;;
34317;SDS011;20582;52.196;20.952;2023-05-09T09:28:37;5.05;;;2.83;;
34317;SDS011;20582;52.196;20.952;2023-05-09T09:33:49;6.45;;;2.63;;
34317;SDS011;20582;52.196;20.952;2023-05-09T09:36:15;5.60;;;2.90;;
34317;SDS011;20582;52.196;20.952;2023-05-09T09:38:42;8.13;;;2.53;;
34317;SDS011;20582;52.196;20.952;2023-05-09T09:41:08;5.93;;;2.90;;
34317;SDS011;20582;52.196;20.952;2023-05-09T09:43:37;4.28;;;2.47;;
34317;SDS011;20582;52.196;20.952;2023-05-09T09:46:03;4.90;;;3.05;;
34317;SDS011;20582;52.196;20.952;2023-05-09T09:48:30;4.65;;;2.58;;
34317;SDS011;20582;52.196;20.952;2023-05-09T09:51:06;9.65;;;2.90;;
34317;SDS011;20582;52.196;20.952;2023-05-09T09:53:40;7.22;;;2.90;;
34317;SDS011;20582;52.196;20.952;2023-05-09T09:56:07;3.75;;;2.80;;
34317;SDS011;20582;52.196;20.952;2023-05-09T09:58:33;6.00;;;2.78;;
34317;SDS011;20582;52.196;20.952;2023-05-09T10:01:18;6.68;;;2.90;;
34317;SDS011;20582;52.196;20.952;2023-05-09T10:03:44;4.68;;;2.60;;
34317;SDS011;20582;52.196;20.952;2023-05-09T10:06:15;5.13;;;2.67;;
34317;SDS011;20582;52.196;20.952;2023-05-09T10:11:08;4.13;;;2.22;;
34317;SDS011;20582;52.196;20.952;2023-05-09T10:13:34;5.15;;;2.83;;
34317;SDS011;20582;52.196;20.952;2023-05-09T10:16:00;5.63;;;2.88;;
34317;SDS011;20582;52.196;20.952;2023-05-09T10:18:28;4.60;;;2.80;;
34317;SDS011;20582;52.196;20.952;2023-05-09T10:20:55;5.38;;;2.80;;
34317;SDS011;20582;52.196;20.952;2023-05-09T10:23:25;5.65;;;3.13;;
34317;SDS011;20582;52.196;20.952;2023-05-09T10:26:04;7.88;;;3.28;;
34317;SDS011;20582;52.196;20.952;2023-05-09T10:28:34;6.45;;;2.95;;
34317;SDS011;20582;52.196;20.952;2023-05-09T10:31:03;10.10;;;4.53;;
34317;SDS011;20582;52.196;20.952;2023-05-09T10:33:30;5.45;;;2.83;;
34317;SDS011;20582;52.196;20.952;2023-05-09T10:35:58;6.97;;;3.08;;
34317;SDS011;20582;52.196;20.952;2023-05-09T10:38:25;4.95;;;2.88;;
34317;SDS011;20582;52.196;20.952;2023-05-09T10:40:51;6.80;;;2.72;;
34317;SDS011;20582;52.196;20.952;2023-05-09T10:43:18;5.60;;;2.72;;
34317;SDS011;20582;52.196;20.952;2023-05-09T10:45:47;6.03;;;3.00;;
34317;SDS011;20582;52.196;20.952;2023-05-09T10:48:14;6.40;;;3.20;;
34317;SDS011;20582;52.196;20.952;2023-05-09T10:50:40;7.60;;;3.35;;
34317;SDS011;20582;52.196;20.952;2023-05-09T10:53:07;7.18;;;2.92;;
34317;SDS011;20582;52.196;20.952;2023-05-09T10:58:17;5.55;;;3.00;;
34317;SDS011;20582;52.196;20.952;2023-05-09T11:00:47;7.88;;;2.88;;
34317;SDS011;20582;52.196;20.952;2023-05-09T11:03:13;7.38;;;2.85;;
34317;SDS011;20582;52.196;20.952;2023-05-09T11:05:40;5.40;;;2.67;;
34317;SDS011;20582;52.196;20.952;2023-05-09T11:08:19;4.50;;;2.80;;
34317;SDS011;20582;52.196;20.952;2023-05-09T11:10:45;7.55;;;3.28;;
34317;SDS011;20582;52.196;20.952;2023-05-09T11:13:11;7.68;;;3.60;;
34317;SDS011;20582;52.196;20.952;2023-05-09T11:15:49;10.90;;;4.80;;
34317;SDS011;20582;52.196;20.952;2023-05-09T11:18:16;6.75;;;3.03;;
34317;SDS011;20582;52.196;20.952;2023-05-09T11:20:43;6.00;;;2.95;;
34317;SDS011;20582;52.196;20.952;2023-05-09T11:23:09;3.78;;;2.55;;
34317;SDS011;20582;52.196;20.952;2023-05-09T11:25:36;7.32;;;3.38;;
34317;SDS011;20582;52.196;20.952;2023-05-09T11:28:03;5.80;;;2.90;;
34317;SDS011;20582;52.196;20.952;2023-05-09T11:30:42;7.35;;;2.85;;
34317;SDS011;20582;52.196;20.952;2023-05-09T11:33:25;5.25;;;2.70;;
34317;SDS011;20582;52.196;20.952;2023-05-09T11:38:41;6.00;;;3.10;;
34317;SDS011;20582;52.196;20.952;2023-05-09T11:41:07;4.85;;;2.90;;
34317;SDS011;20582;52.196;20.952;2023-05-09T11:43:36;6.85;;;3.03;;
34317;SDS011;20582;52.196;20.952;2023-05-09T11:46:03;7.83;;;3.30;;
34317;SDS011;20582;52.196;20.952;2023-05-09T11:48:29;7.18;;;3.00;;
34317;SDS011;20582;52.196;20.952;2023-05-09T11:50:55;3.47;;;2.60;;
34317;SDS011;20582;52.196;20.952;2023-05-09T11:53:21;5.47;;;2.65;;
34317;SDS011;20582;52.196;20.952;2023-05-09T11:55:47;5.47;;;2.70;;
34317;SDS011;20582;52.196;20.952;2023-05-09T11:58:13;6.35;;;2.70;;
34317;SDS011;20582;52.196;20.952;2023-05-09T12:00:43;5.30;;;2.70;;
34317;SDS011;20582;52.196;20.952;2023-05-09T12:03:09;6.22;;;2.70;;
34317;SDS011;20582;52.196;20.952;2023-05-09T12:05:36;5.78;;;2.47;;
34317;SDS011;20582;52.196;20.952;2023-05-09T12:08:06;4.18;;;2.60;;
34317;SDS011;20582;52.196;20.952;2023-05-09T12:10:36;4.75;;;2.50;;
34317;SDS011;20582;52.196;20.952;2023-05-09T12:13:03;6.43;;;2.55;;
34317;SDS011;20582;52.196;20.952;2023-05-09T12:15:29;5.47;;;2.75;;
34317;SDS011;20582;52.196;20.952;2023-05-09T12:18:04;5.90;;;2.70;;
34317;SDS011;20582;52.196;20.952;2023-05-09T12:20:47;5.72;;;2.72;;
34317;SDS011;20582;52.196;20.952;2023-05-09T12:23:16;6.10;;;2.53;;
34317;SDS011;20582;52.196;20.952;2023-05-09T12:25:46;6.30;;;2.65;;
34317;SDS011;20582;52.196;20.952;2023-05-09T12:28:12;10.37;;;2.63;;
34317;SDS011;20582;52.196;20.952;2023-05-09T12:30:39;3.75;;;2.30;;
34317;SDS011;20582;52.196;20.952;2023-05-09T12:33:06;5.80;;;2.38;;
34317;SDS011;20582;52.196;20.952;2023-05-09T12:35:36;6.32;;;2.42;;
34317;SDS011;20582;52.196;20.952;2023-05-09T12:38:02;6.10;;;2.50;;
34317;SDS011;20582;52.196;20.952;2023-05-09T12:40:28;5.07;;;2.40;;
34317;SDS011;20582;52.196;20.952;2023-05-09T12:42:55;5.82;;;2.60;;
34317;SDS011;20582;52.196;20.952;2023-05-09T12:45:24;7.70;;;2.90;;
34317;SDS011;20582;52.196;20.952;2023-05-09T12:47:51;4.18;;;2.55;;
34317;SDS011;20582;52.196;20.952;2023-05-09T12:50:18;4.80;;;2.80;;
34317;SDS011;20582;52.196;20.952;2023-05-09T12:52:48;7.90;;;3.00;;
34317;SDS011;20582;52.196;20.952;2023-05-09T12:55:14;10.45;;;2.67;;
34317;SDS011;20582;52.196;20.952;2023-05-09T12:57:40;6.65;;;2.65;;
34317;SDS011;20582;52.196;20.952;2023-05-09T13:00:07;8.95;;;2.80;;
34317;SDS011;20582;52.196;20.952;2023-05-09T13:02:37;5.45;;;2.65;;
34317;SDS011;20582;52.196;20.952;2023-05-09T13:05:12;8.68;;;3.13;;
34317;SDS011;20582;52.196;20.952;2023-05-09T13:10:09;5.80;;;3.08;;
34317;SDS011;20582;52.196;20.952;2023-05-09T13:12:35;7.72;;;2.85;;
34317;SDS011;20582;52.196;20.952;2023-05-09T13:15:02;4.75;;;2.28;;
34317;SDS011;20582;52.196;20.952;2023-05-09T13:17:28;8.40;;;2.58;;
34317;SDS011;20582;52.196;20.952;2023-05-09T13:19:54;6.93;;;2.60;;
34317;SDS011;20582;52.196;20.952;2023-05-09T13:22:20;5.05;;;2.53;;
34317;SDS011;20582;52.196;20.952;2023-05-09T13:24:46;7.15;;;2.65;;
34317;SDS011;20582;52.196;20.952;2023-05-09T13:27:12;4.28;;;2.67;;
34317;SDS011;20582;52.196;20.952;2023-05-09T13:29:38;5.63;;;2.47;;
34317;SDS011;20582;52.196;20.952;2023-05-09T13:32:04;6.13;;;2.50;;
34317;SDS011;20582;52.196;20.952;2023-05-09T13:34:31;5.97;;;2.60;;
34317;SDS011;20582;52.196;20.952;2023-05-09T13:36:57;5.40;;;2.50;;
34317;SDS011;20582;52.196;20.952;2023-05-09T13:39:22;5.13;;;2.47;;
34317;SDS011;20582;52.196;20.952;2023-05-09T13:41:48;5.47;;;2.50;;
34317;SDS011;20582;52.196;20.952;2023-05-09T13:44:16;8.80;;;2.50;;
34317;SDS011;20582;52.196;20.952;2023-05-09T13:46:43;4.45;;;2.53;;
34317;SDS011;20582;52.196;20.952;2023-05-09T13:49:09;5.45;;;2.80;;
34317;SDS011;20582;52.196;20.952;2023-05-09T13:51:36;4.68;;;2.35;;
34317;SDS011;20582;52.196;20.952;2023-05-09T13:54:02;9.20;;;2.65;;
34317;SDS011;20582;52.196;20.952;2023-05-09T13:56:32;6.75;;;2.78;;
34317;SDS011;20582;52.196;20.952;2023-05-09T13:58:58;5.95;;;2.70;;
34317;SDS011;20582;52.196;20.952;2023-05-09T14:01:24;3.97;;;2.33;;
34317;SDS011;20582;52.196;20.952;2023-05-09T14:03:50;5.50;;;2.70;;
34317;SDS011;20582;52.196;20.952;2023-05-09T14:06:16;7.03;;;3.03;;
34317;SDS011;20582;52.196;20.952;2023-05-09T14:08:42;8.05;;;2.58;;
34317;SDS011;20582;52.196;20.952;2023-05-09T14:11:08;4.53;;;2.55;;
34317;SDS011;20582;52.196;20.952;2023-05-09T14:13:34;5.18;;;2.60;;
34317;SDS011;20582;52.196;20.952;2023-05-09T14:16:00;4.88;;;2.65;;
34317;SDS011;20582;52.196;20.952;2023-05-09T14:18:26;5.60;;;2.70;;
34317;SDS011;20582;52.196;20.952;2023-05-09T14:20:52;4.38;;;2.63;;
34317;SDS011;20582;52.196;20.952;2023-05-09T14:23:18;6.97;;;2.75;;
34317;SDS011;20582;52.196;20.952;2023-05-09T14:25:44;7.38;;;2.60;;
34317;SDS011;20582;52.196;20.952;2023-05-09T14:28:10;9.20;;;2.50;;
34317;SDS011;20582;52.196;20.952;2023-05-09T14:30:36;7.40;;;2.40;;
34317;SDS011;20582;52.196;20.952;2023-05-09T14:33:02;5.32;;;2.78;;
34317;SDS011;20582;52.196;20.952;2023-05-09T14:35:28;7.82;;;3.00;;
34317;SDS011;20582;52.196;20.952;2023-05-09T14:37:56;4.85;;;2.63;;
34317;SDS011;20582;52.196;20.952;2023-05-09T14:40:22;6.65;;;2.70;;
34317;SDS011;20582;52.196;20.952;2023-05-09T14:42:48;6.32;;;2.70;;
34317;SDS011;20582;52.196;20.952;2023-05-09T14:45:14;4.50;;;2.60;;